LEAL Airport Information

Runway Information
Runway 10 Length 9842 ft width 148 ft
Elevation 142 ft Threshold 0 ft Heading 100
Runway 28 Length 9842 ft Width 148 ft
Elevation 44 ft Threshold 0 ft Heading 280
Airport Frequencies
Type APP Name APP Frequency 118.8 MHZ
Type ATIS Name ATIS Frequency 113.8 MHZ
Type GND Name GND Frequency 121.7 MHZ
Type TWR Name TWR Frequency 118.15 MHZ
Airport Navaids
Type VOR-DME Name Alicante Frequency 113800 KHZ
Type VOR-DME Name Alicante Frequency 114650 KHZ
Airport Weather Information & NOTAM
ADDS - METARS form results

(0805 UTC 22 February 2019)
Data provider http://aviationweather.gov/metar/data/
 
METAR text: LEAL 220800Z 24003KT 170V300 CAVOK 07/04 Q1031 NOSIG
Conditions at: LEAL (ALICANTE/EL ALTE, ES) observed 0800 UTC 22 February 2019
Temperature: 7.0°C (45°F)
Dewpoint: 4.0°C (39°F) [RH = 81%]
Pressure (altimeter): 30.44 inches Hg (1031.0 mb)
Winds: from the WSW (240 degrees) at 3 MPH (3 knots; 1.5 m/s)
Visibility: 6 or more miles (10+ km)
Ceiling: ceiling and visibility are OK
Clouds: unknown
Weather: no significant weather observed at this time

METAR text: LEAL 220730Z 23004KT CAVOK 05/03 Q1031 NOSIG
Conditions at: LEAL (ALICANTE/EL ALTE, ES) observed 0730 UTC 22 February 2019
Temperature: 5.0°C (41°F)
Dewpoint: 3.0°C (37°F) [RH = 87%]
Pressure (altimeter): 30.44 inches Hg (1031.0 mb)
Winds: from the SW (230 degrees) at 5 MPH (4 knots; 2.1 m/s)
Visibility: 6 or more miles (10+ km)
Ceiling: ceiling and visibility are OK
Clouds: unknown
Weather: no significant weather observed at this time

Forecast for: LEAL (ALICANTE/EL ALTE, ES)
Text: TAF LEAL 220500Z 2206/2306 30007KT 9999 FEW030 TX19/2213Z TN05/2206Z
Forecast period: 0600 to 1000 UTC 22 February 2019
Forecast type: FROM: standard forecast or significant change
Winds: from the WNW (300 degrees) at 8 MPH (7 knots; 3.6 m/s)
Visibility: 6 or more miles 10+ km)
Ceiling: at least 12,000 feet AGL
Clouds: few clouds at 3000 feet AGL
Weather: no significant weather forecast for this period
Text: BECMG 2210/2212 18008KT
Forecast period: 1000 to 1800 UTC 22 February 2019
Forecast type: BECOMING: Conditions expected to become as follows by 1200 UTC 22 February 2019
Winds: from the S (180 degrees) at 9 MPH (8 knots; 4.1 m/s)
Visibility: 6 or more miles 10+ km)
Ceiling: at least 12,000 feet AGL
Clouds: few clouds at 3000 feet AGL
Weather: no significant weather forecast for this period
Text: BECMG 2218/2220 29010KT
Forecast period: 1800 UTC 22 February 2019 to 0600 UTC 23 February 2019
Forecast type: BECOMING: Conditions expected to become as follows by 2000 UTC 22 February 2019
Winds: from the WNW (290 degrees) at 12 MPH (10 knots; 5.1 m/s)
Visibility: 6 or more miles 10+ km)
Ceiling: at least 12,000 feet AGL
Clouds: few clouds at 3000 feet AGL
Weather: no significant weather forecast for this period